createdAt,value
2018-03-11T00:00:03.448Z,81.99
2018-03-11T00:02:31.835Z,81.90
2018-03-11T00:05:00.095Z,82.22
2018-03-11T00:07:28.384Z,82.10
2018-03-11T00:09:56.655Z,81.83
2018-03-11T00:12:24.944Z,81.61
2018-03-11T00:14:53.228Z,81.49
2018-03-11T00:17:21.510Z,81.18
2018-03-11T00:19:49.794Z,80.89
2018-03-11T00:22:18.079Z,81.26
2018-03-11T00:24:46.378Z,80.90
2018-03-11T00:27:15.376Z,80.52
2018-03-11T00:29:43.654Z,81.30
2018-03-11T00:32:11.934Z,81.66
2018-03-11T00:34:40.246Z,81.60
2018-03-11T00:37:08.581Z,81.45
2018-03-11T00:39:36.884Z,81.35
2018-03-11T00:42:05.835Z,80.53
2018-03-11T00:44:34.143Z,80.47
2018-03-11T00:47:02.433Z,80.45
2018-03-11T00:49:30.743Z,80.20
2018-03-11T00:51:59.166Z,80.07
2018-03-11T00:54:27.449Z,80.29
2018-03-11T00:56:55.721Z,80.54
2018-03-11T00:59:24.920Z,80.30
2018-03-11T01:01:53.194Z,79.83
2018-03-11T01:04:21.476Z,80.19
2018-03-11T01:06:49.887Z,80.58
2018-03-11T01:09:18.185Z,80.23
2018-03-11T01:11:46.453Z,80.18
2018-03-11T01:14:14.747Z,79.99
2018-03-11T01:16:43.024Z,79.76
2018-03-11T01:19:11.329Z,79.60
2018-03-11T01:21:39.612Z,79.55
2018-03-11T01:24:08.277Z,79.55
2018-03-11T01:26:36.605Z,79.30
2018-03-11T01:29:05.799Z,79.23
2018-03-11T01:31:34.055Z,79.57
2018-03-11T01:34:02.339Z,79.55
2018-03-11T01:36:30.619Z,79.38
2018-03-11T01:38:58.891Z,79.56
2018-03-11T01:41:27.207Z,79.45
2018-03-11T01:43:55.513Z,78.99
2018-03-11T01:46:23.792Z,78.53
2018-03-11T01:48:52.212Z,78.86
2018-03-11T01:51:20.505Z,78.96
2018-03-11T01:53:48.760Z,79.65
2018-03-11T01:56:17.155Z,80.04
2018-03-11T01:58:45.915Z,79.80
2018-03-11T02:01:14.200Z,80.33
2018-03-11T02:03:42.456Z,80.70
2018-03-11T02:06:10.769Z,80.60
2018-03-11T02:08:39.056Z,80.51
2018-03-11T02:11:07.378Z,80.39
2018-03-11T02:13:35.666Z,80.54
2018-03-11T02:16:03.967Z,80.73
2018-03-11T02:18:32.277Z,80.83
2018-03-11T02:21:00.527Z,80.99
2018-03-11T02:23:28.856Z,81.00
2018-03-11T02:25:57.158Z,80.91
2018-03-11T02:28:25.760Z,80.62
2018-03-11T02:30:54.045Z,80.35
2018-03-11T02:33:22.327Z,80.43
2018-03-11T02:35:50.603Z,80.43
2018-03-11T02:38:18.910Z,80.42
2018-03-11T02:40:47.203Z,80.40
2018-03-11T02:43:15.505Z,80.43
2018-03-11T02:45:43.780Z,80.41
2018-03-11T02:48:12.106Z,80.27
2018-03-11T02:50:40.335Z,80.15
2018-03-11T02:53:08.611Z,80.14
2018-03-11T02:55:36.886Z,80.30
2018-03-11T02:58:05.163Z,80.60
2018-03-11T03:00:33.441Z,80.79
2018-03-11T03:03:01.728Z,81.10
2018-03-11T03:05:30.001Z,80.91
2018-03-11T03:07:58.362Z,80.88
2018-03-11T03:10:26.607Z,80.90
2018-03-11T03:12:54.912Z,81.12
2018-03-11T03:15:23.159Z,81.43
2018-03-11T03:17:51.453Z,81.54
2018-03-11T03:20:19.711Z,81.77
2018-03-11T03:22:48.013Z,81.92
2018-03-11T03:25:16.356Z,81.87
2018-03-11T03:27:44.668Z,81.54
2018-03-11T03:30:12.972Z,81.53
2018-03-11T03:32:41.280Z,81.43
2018-03-11T03:35:09.544Z,81.34
2018-03-11T03:37:37.800Z,81.46
2018-03-11T03:40:06.076Z,81.50
2018-03-11T03:42:34.348Z,81.07
2018-03-11T03:45:02.640Z,81.17
2018-03-11T03:47:30.947Z,81.26
2018-03-11T03:49:59.235Z,81.19
2018-03-11T03:52:27.811Z,81.08
2018-03-11T03:54:56.098Z,81.42
2018-03-11T03:57:24.400Z,81.49
2018-03-11T03:59:52.701Z,81.40
2018-03-11T04:02:20.987Z,81.49
2018-03-11T04:04:49.296Z,81.22
2018-03-11T04:07:17.602Z,80.67
2018-03-11T04:09:45.894Z,81.12
2018-03-11T04:12:14.160Z,81.31
2018-03-11T04:14:42.480Z,81.62
2018-03-11T04:17:10.758Z,81.53
2018-03-11T04:19:39.072Z,81.56
2018-03-11T04:22:07.358Z,81.63
2018-03-11T04:24:35.647Z,81.39
2018-03-11T04:27:04.771Z,81.78
2018-03-11T04:29:33.082Z,81.76
2018-03-11T04:32:01.356Z,81.85
2018-03-11T04:34:29.701Z,81.86
2018-03-11T04:36:57.985Z,80.97
2018-03-11T04:39:26.265Z,80.83
2018-03-11T04:41:54.536Z,81.46
2018-03-11T04:44:22.825Z,81.78
2018-03-11T04:46:51.149Z,82.11
2018-03-11T04:49:19.438Z,82.22
2018-03-11T04:51:47.732Z,82.01
2018-03-11T04:54:15.984Z,81.46
2018-03-11T04:56:44.272Z,80.84
2018-03-11T04:59:12.562Z,81.10
2018-03-11T05:01:41.368Z,81.45
2018-03-11T05:04:09.681Z,81.60
2018-03-11T05:06:37.970Z,81.37
2018-03-11T05:09:06.248Z,81.64
2018-03-11T05:11:34.529Z,81.72
2018-03-11T05:14:02.826Z,81.66
2018-03-11T05:16:31.084Z,81.67
2018-03-11T05:18:59.560Z,81.45
2018-03-11T05:21:27.839Z,81.53
2018-03-11T05:23:56.123Z,81.60
2018-03-11T05:26:24.411Z,81.62
2018-03-11T05:28:52.721Z,81.28
2018-03-11T05:31:20.987Z,81.16
2018-03-11T05:33:49.304Z,81.35
2018-03-11T05:36:17.568Z,81.63
2018-03-11T05:38:45.858Z,81.81
2018-03-11T05:41:14.123Z,81.88
2018-03-11T05:43:42.443Z,82.59
2018-03-11T05:46:10.716Z,82.60
2018-03-11T05:48:38.995Z,83.25
2018-03-11T05:51:07.269Z,83.61
2018-03-11T05:53:35.561Z,83.90
2018-03-11T05:56:03.816Z,84.22
2018-03-11T05:58:32.089Z,84.00
2018-03-11T06:01:00.376Z,83.89
2018-03-11T06:03:28.679Z,83.79
2018-03-11T06:05:56.950Z,83.63
2018-03-11T06:08:25.220Z,83.85
2018-03-11T06:10:53.480Z,84.24
2018-03-11T06:13:22.127Z,84.16
2018-03-11T06:15:50.425Z,83.96
2018-03-11T06:18:18.753Z,84.02
2018-03-11T06:20:46.996Z,84.06
2018-03-11T06:23:16.191Z,83.69
2018-03-11T06:25:44.476Z,83.31
2018-03-11T06:28:12.842Z,83.04
2018-03-11T06:30:41.130Z,82.87
2018-03-11T06:33:09.408Z,82.40
2018-03-11T06:35:37.755Z,82.40
2018-03-11T06:38:06.033Z,82.31
2018-03-11T06:40:34.332Z,82.23
2018-03-11T06:43:02.662Z,82.37
2018-03-11T06:45:30.961Z,82.43
2018-03-11T06:47:59.272Z,82.29
2018-03-11T06:50:27.540Z,82.13
2018-03-11T06:52:55.824Z,82.45
2018-03-11T06:55:24.479Z,82.00
2018-03-11T06:57:52.752Z,81.88
2018-03-11T07:00:21.056Z,81.46
2018-03-11T07:02:49.329Z,80.59
2018-03-11T07:05:17.614Z,80.59
2018-03-11T07:07:45.889Z,80.38
2018-03-11T07:10:14.186Z,80.26
2018-03-11T07:12:42.461Z,80.47
2018-03-11T07:15:10.756Z,80.88
2018-03-11T07:17:39.070Z,80.84
2018-03-11T07:20:07.344Z,81.10
2018-03-11T07:22:35.621Z,81.47
2018-03-11T07:25:04.811Z,82.28
2018-03-11T07:27:33.096Z,81.89
2018-03-11T07:30:01.383Z,82.75
2018-03-11T07:32:30.600Z,83.12
2018-03-11T07:34:58.880Z,83.95
2018-03-11T07:37:27.181Z,84.45
2018-03-11T07:39:55.512Z,84.31
2018-03-11T07:42:23.780Z,83.96
2018-03-11T07:44:52.045Z,83.79
2018-03-11T07:47:20.344Z,83.54
2018-03-11T07:49:48.620Z,84.04
2018-03-11T07:52:16.912Z,84.27
2018-03-11T07:54:45.199Z,84.33
2018-03-11T07:57:13.492Z,84.48
2018-03-11T07:59:41.786Z,84.61
2018-03-11T08:02:10.071Z,84.62
2018-03-11T08:04:38.360Z,83.85
2018-03-11T08:07:06.662Z,84.12
2018-03-11T08:09:34.935Z,84.46
2018-03-11T08:12:03.248Z,84.05
2018-03-11T08:14:31.509Z,83.69
2018-03-11T08:16:59.903Z,84.25
2018-03-11T08:19:28.191Z,84.39
2018-03-11T08:21:56.497Z,84.22
2018-03-11T08:24:24.766Z,84.18
2018-03-11T08:26:53.065Z,83.62
2018-03-11T08:29:21.323Z,83.46
2018-03-11T08:31:49.807Z,83.21
2018-03-11T08:34:18.066Z,82.89
2018-03-11T08:36:46.340Z,82.66
2018-03-11T08:39:14.630Z,82.51
2018-03-11T08:41:42.899Z,82.74
2018-03-11T08:44:11.196Z,82.70
2018-03-11T08:46:39.456Z,82.87
2018-03-11T08:49:07.766Z,82.77
2018-03-11T08:51:36.043Z,82.78
2018-03-11T08:54:05.392Z,82.69
2018-03-11T08:56:33.668Z,82.36
2018-03-11T08:59:01.955Z,82.54
2018-03-11T09:01:30.244Z,82.63
2018-03-11T09:03:58.575Z,83.26
2018-03-11T09:06:26.848Z,83.55
2018-03-11T09:08:55.189Z,83.27
2018-03-11T09:11:23.485Z,83.03
2018-03-11T09:13:51.795Z,82.88
2018-03-11T09:16:20.524Z,82.76
2018-03-11T09:18:49.664Z,82.65
2018-03-11T09:21:17.980Z,82.29
2018-03-11T09:23:46.376Z,82.08
2018-03-11T09:26:14.637Z,81.98
2018-03-11T09:28:42.929Z,81.72
2018-03-11T09:31:11.270Z,82.07
2018-03-11T09:33:41.486Z,82.28
2018-03-11T09:36:09.799Z,82.54
2018-03-11T09:38:38.096Z,82.71
2018-03-11T09:41:06.419Z,82.20
2018-03-11T09:43:34.744Z,81.32
2018-03-11T09:46:03.019Z,79.92
2018-03-11T09:48:31.300Z,79.82
2018-03-11T09:50:59.602Z,79.40
2018-03-11T09:53:27.868Z,79.41
2018-03-11T09:55:56.168Z,79.22
2018-03-11T09:58:24.872Z,79.28
2018-03-11T10:00:53.791Z,79.38
2018-03-11T10:03:22.068Z,79.47
2018-03-11T10:05:50.367Z,79.41
2018-03-11T10:08:18.629Z,79.23
2018-03-11T10:10:46.934Z,79.38
2018-03-11T10:13:15.208Z,79.61
2018-03-11T10:15:43.495Z,79.58
2018-03-11T10:18:11.786Z,79.86
2018-03-11T10:20:40.160Z,79.66
2018-03-11T10:23:08.439Z,79.61
2018-03-11T10:25:36.771Z,79.82
2018-03-11T10:28:05.041Z,79.73
2018-03-11T10:30:33.347Z,79.17
2018-03-11T10:33:01.682Z,78.84
2018-03-11T10:35:29.960Z,79.03
2018-03-11T10:37:58.267Z,79.57
2018-03-11T10:40:26.541Z,79.92
2018-03-11T10:42:54.849Z,80.00
2018-03-11T10:45:23.146Z,80.04
2018-03-11T10:47:51.425Z,80.22
2018-03-11T10:50:19.698Z,79.98
2018-03-11T10:52:48.001Z,80.29
2018-03-11T10:55:16.300Z,80.44
2018-03-11T10:57:44.623Z,80.37
2018-03-11T11:00:13.228Z,80.18
2018-03-11T11:02:41.520Z,80.09
2018-03-11T11:05:09.812Z,80.17
2018-03-11T11:07:38.971Z,79.83
2018-03-11T11:10:07.249Z,81.57
2018-03-11T11:12:35.564Z,81.91
2018-03-11T11:15:03.841Z,81.65
2018-03-11T11:17:32.137Z,81.50
2018-03-11T11:20:00.418Z,81.83
2018-03-11T11:22:28.712Z,82.32
2018-03-11T11:24:57.017Z,82.15
2018-03-11T11:27:25.380Z,81.98
2018-03-11T11:29:53.636Z,81.66
2018-03-11T11:32:21.938Z,81.64
2018-03-11T11:34:50.198Z,82.25
2018-03-11T11:37:18.521Z,82.48
2018-03-11T11:39:46.808Z,82.50
2018-03-11T11:42:15.079Z,82.98
2018-03-11T11:44:43.383Z,83.38
2018-03-11T11:47:11.680Z,83.45
2018-03-11T11:49:40.050Z,82.72
2018-03-11T11:52:08.367Z,82.44
2018-03-11T11:54:36.695Z,82.17
2018-03-11T11:57:05.763Z,82.03
2018-03-11T11:59:34.096Z,82.08
2018-03-11T12:02:02.356Z,82.11
2018-03-11T12:04:30.724Z,81.72
2018-03-11T12:06:59.016Z,81.43
2018-03-11T12:09:27.312Z,81.48
2018-03-11T12:11:55.601Z,80.81
2018-03-11T12:14:23.936Z,80.46
2018-03-11T12:16:52.331Z,80.52
2018-03-11T12:19:20.698Z,79.94
2018-03-11T12:21:48.969Z,79.57
2018-03-11T12:24:17.257Z,79.52
2018-03-11T12:26:45.543Z,78.46
2018-03-11T12:29:13.944Z,78.31
2018-03-11T12:31:42.263Z,78.68
2018-03-11T12:34:10.586Z,79.41
2018-03-11T12:36:38.887Z,79.33
2018-03-11T12:39:07.179Z,77.44
2018-03-11T12:41:35.560Z,77.23
2018-03-11T12:44:05.068Z,77.47
2018-03-11T12:46:33.388Z,76.87
2018-03-11T12:49:01.646Z,75.94
2018-03-11T12:51:30.572Z,74.97
2018-03-11T12:53:58.828Z,74.02
2018-03-11T12:56:27.155Z,73.88
2018-03-11T12:58:55.399Z,73.61
2018-03-11T13:01:23.871Z,72.15
2018-03-11T13:03:52.140Z,72.47
2018-03-11T13:06:20.440Z,72.75
2018-03-11T13:08:48.757Z,71.63
2018-03-11T13:11:17.083Z,71.47
2018-03-11T13:13:45.360Z,71.78
2018-03-11T13:16:13.661Z,70.92
2018-03-11T13:18:41.923Z,70.22
2018-03-11T13:21:11.051Z,69.70
2018-03-11T13:23:40.567Z,70.40
2018-03-11T13:26:08.844Z,69.61
2018-03-11T13:28:46.799Z,70.16
2018-03-11T13:31:15.558Z,70.79
2018-03-11T13:33:55.635Z,71.20
2018-03-11T13:36:24.009Z,70.77
2018-03-11T13:39:04.015Z,70.50
2018-03-11T13:41:32.339Z,71.29
2018-03-11T13:44:01.406Z,71.52
2018-03-11T13:46:41.397Z,71.30
2018-03-11T13:49:09.683Z,71.59
2018-03-11T13:51:49.646Z,71.26
2018-03-11T13:54:17.918Z,70.74
2018-03-11T13:56:46.187Z,70.83
2018-03-11T13:59:14.504Z,70.72
2018-03-11T14:01:42.778Z,69.17
2018-03-11T14:04:11.092Z,69.10
2018-03-11T14:06:39.400Z,68.77
2018-03-11T14:09:07.677Z,68.07
2018-03-11T14:11:35.940Z,69.03
2018-03-11T14:14:04.250Z,68.97
2018-03-11T14:16:32.619Z,69.23
2018-03-11T14:19:00.935Z,68.71
2018-03-11T14:21:29.220Z,68.69
2018-03-11T14:23:58.248Z,68.31
2018-03-11T14:26:26.892Z,68.45
2018-03-11T14:28:55.189Z,68.49
2018-03-11T14:31:23.472Z,68.71
2018-03-11T14:33:51.775Z,67.96
2018-03-11T14:36:20.679Z,67.99
2018-03-11T14:38:48.960Z,67.75
2018-03-11T14:41:17.253Z,67.07
2018-03-11T14:43:45.511Z,67.63
2018-03-11T14:46:13.878Z,67.89
2018-03-11T14:48:42.690Z,67.26
2018-03-11T14:51:16.904Z,66.79
2018-03-11T14:53:45.177Z,65.84
2018-03-11T14:56:13.464Z,66.79
2018-03-11T14:58:41.833Z,67.21
2018-03-11T15:01:10.174Z,67.85
2018-03-11T15:03:38.444Z,67.58
2018-03-11T15:06:06.792Z,68.01
2018-03-11T15:08:35.112Z,68.80
2018-03-11T15:11:03.402Z,69.03
2018-03-11T15:13:31.715Z,68.51
2018-03-11T15:15:59.999Z,69.38
2018-03-11T15:18:28.300Z,69.87
2018-03-11T15:20:56.584Z,70.56
2018-03-11T15:23:24.908Z,70.38
2018-03-11T15:25:53.184Z,71.34
2018-03-11T15:28:25.167Z,70.67
2018-03-11T15:30:53.536Z,70.84
2018-03-11T15:33:21.833Z,70.46
2018-03-11T15:35:50.206Z,70.22
2018-03-11T15:38:18.502Z,70.13
2018-03-11T15:40:46.869Z,69.89
2018-03-11T15:43:15.136Z,69.98
2018-03-11T15:45:43.415Z,69.32
2018-03-11T15:48:11.809Z,69.28
2018-03-11T15:50:40.148Z,69.53
2018-03-11T15:53:08.471Z,69.76
2018-03-11T15:55:36.727Z,70.42
2018-03-11T15:58:05.521Z,70.14
2018-03-11T16:00:33.787Z,69.97
2018-03-11T16:03:02.080Z,69.97
2018-03-11T16:05:30.345Z,70.01
2018-03-11T16:07:58.638Z,70.05
2018-03-11T16:10:26.934Z,69.84
2018-03-11T16:12:55.245Z,70.35
2018-03-11T16:15:23.504Z,70.33
2018-03-11T16:17:52.455Z,70.25
2018-03-11T16:20:20.853Z,70.64
2018-03-11T16:22:49.183Z,70.71
2018-03-11T16:25:17.462Z,71.01
2018-03-11T16:27:45.791Z,71.18
2018-03-11T16:30:14.107Z,70.77
2018-03-11T16:32:43.752Z,70.79
2018-03-11T16:35:12.068Z,71.12
2018-03-11T16:37:40.389Z,70.81
2018-03-11T16:40:09.181Z,70.87
2018-03-11T16:42:37.469Z,70.96
2018-03-11T16:45:05.785Z,71.17
2018-03-11T16:47:34.085Z,71.34
2018-03-11T16:50:02.377Z,71.31
2018-03-11T16:52:30.665Z,71.22
2018-03-11T16:55:00.049Z,70.85
2018-03-11T16:57:28.365Z,71.00
2018-03-11T16:59:56.684Z,71.01
2018-03-11T17:02:25.583Z,70.99
2018-03-11T17:04:53.894Z,71.07
2018-03-11T17:07:22.204Z,71.01
2018-03-11T17:09:50.598Z,70.92
2018-03-11T17:12:18.920Z,71.30
2018-03-11T17:14:47.209Z,71.79
2018-03-11T17:17:15.492Z,72.20
2018-03-11T17:19:43.859Z,71.99
2018-03-11T17:22:13.060Z,71.47
2018-03-11T17:24:41.335Z,71.38
2018-03-11T17:27:09.649Z,71.56
2018-03-11T17:29:38.902Z,71.38
2018-03-11T17:32:07.198Z,71.50
2018-03-11T17:34:35.536Z,71.60
2018-03-11T17:37:03.862Z,71.55
2018-03-11T17:39:32.623Z,71.29
2018-03-11T17:42:00.930Z,71.06
2018-03-11T17:44:29.211Z,71.31
2018-03-11T17:46:57.582Z,71.28
2018-03-11T17:49:25.848Z,71.24
2018-03-11T17:51:54.158Z,71.27
2018-03-11T17:54:22.503Z,71.45
2018-03-11T17:56:50.844Z,71.61
2018-03-11T17:59:19.155Z,71.75
2018-03-11T18:01:47.471Z,71.77
2018-03-11T18:04:15.799Z,71.64
2018-03-11T18:06:44.097Z,71.35
2018-03-11T18:09:12.485Z,71.33
2018-03-11T18:11:40.963Z,71.34
2018-03-11T18:14:09.446Z,71.31
2018-03-11T18:16:37.808Z,71.50
2018-03-11T18:19:06.322Z,71.93
2018-03-11T18:21:34.614Z,71.62
2018-03-11T18:24:03.047Z,71.82
2018-03-11T18:26:31.343Z,71.71
2018-03-11T18:28:59.632Z,71.70
2018-03-11T18:31:27.914Z,71.95
2018-03-11T18:33:56.224Z,72.19
2018-03-11T18:36:24.513Z,72.39
2018-03-11T18:38:56.681Z,72.60
2018-03-11T18:44:21.845Z,71.89
2018-03-11T18:46:50.151Z,72.46
2018-03-11T18:49:18.474Z,72.76
2018-03-11T18:51:47.097Z,72.54
2018-03-11T18:54:15.397Z,72.96
2018-03-11T18:56:43.791Z,72.93
2018-03-11T18:59:12.108Z,73.63
2018-03-11T19:01:40.964Z,73.76
2018-03-11T19:04:10.075Z,73.66
2018-03-11T19:06:38.450Z,73.32
2018-03-11T19:09:06.747Z,73.17
2018-03-11T19:11:35.033Z,73.28
2018-03-11T19:14:03.319Z,73.40
2018-03-11T19:16:31.756Z,73.66
2018-03-11T19:19:00.112Z,73.78
2018-03-11T19:21:28.465Z,73.76
2018-03-11T19:23:57.001Z,73.73
2018-03-11T19:26:25.415Z,73.73
2018-03-11T19:28:53.715Z,73.84
2018-03-11T19:31:21.995Z,73.82
2018-03-11T19:33:50.318Z,73.67
2018-03-11T19:36:18.739Z,73.62
2018-03-11T19:38:47.064Z,73.75
2018-03-11T19:41:16.068Z,73.92
2018-03-11T19:43:44.396Z,74.17
2018-03-11T19:46:12.740Z,74.25
2018-03-11T19:48:41.127Z,74.39
2018-03-11T19:51:09.624Z,74.58
2018-03-11T19:53:37.871Z,74.75
2018-03-11T19:56:06.193Z,74.61
2018-03-11T19:58:34.521Z,74.59
2018-03-11T20:01:02.807Z,74.48
2018-03-11T20:03:32.005Z,74.59
2018-03-11T20:06:00.362Z,74.75
2018-03-11T20:08:28.592Z,74.94
2018-03-11T20:10:56.916Z,74.84
2018-03-11T20:13:25.178Z,74.92
2018-03-11T20:15:53.460Z,75.13
2018-03-11T20:18:21.788Z,75.10
2018-03-11T20:20:50.096Z,75.11
2018-03-11T20:23:18.377Z,75.52
2018-03-11T20:25:46.673Z,75.71
2018-03-11T20:28:14.955Z,75.54
2018-03-11T20:30:43.324Z,75.32
2018-03-11T20:33:11.635Z,75.19
2018-03-11T20:35:40.927Z,75.29
2018-03-11T20:38:09.277Z,75.50
2018-03-11T20:40:37.612Z,75.44
2018-03-11T20:43:06.018Z,76.13
2018-03-11T20:45:34.432Z,75.81
2018-03-11T20:48:02.856Z,76.14
2018-03-11T20:50:31.228Z,76.00
2018-03-11T20:52:59.548Z,76.46
2018-03-11T20:55:27.857Z,76.95
2018-03-11T20:57:56.217Z,77.24
2018-03-11T21:00:24.510Z,77.23
2018-03-11T21:02:52.835Z,76.70
2018-03-11T21:05:21.152Z,76.54
2018-03-11T21:07:49.572Z,76.38
2018-03-11T21:10:17.858Z,76.31
2018-03-11T21:12:46.184Z,76.16
2018-03-11T21:15:14.521Z,75.86
2018-03-11T21:17:42.812Z,76.55
2018-03-11T21:20:11.825Z,76.69
2018-03-11T21:22:40.137Z,76.51
2018-03-11T21:25:08.438Z,76.28
2018-03-11T21:27:36.735Z,75.93
2018-03-11T21:30:05.401Z,75.71
2018-03-11T21:32:33.686Z,75.03
2018-03-11T21:35:02.022Z,74.99
2018-03-11T21:37:30.378Z,75.39
2018-03-11T21:39:58.733Z,76.06
2018-03-11T21:42:27.035Z,76.44
2018-03-11T21:44:55.315Z,76.80
2018-03-11T21:47:23.636Z,76.83
2018-03-11T21:49:51.940Z,77.26
2018-03-11T21:52:20.217Z,77.38
2018-03-11T21:54:48.514Z,77.69
2018-03-11T21:57:16.836Z,78.09
2018-03-11T21:59:45.170Z,78.19
2018-03-11T22:02:14.257Z,78.33
2018-03-11T22:04:42.577Z,78.32
2018-03-11T22:07:10.873Z,78.42
2018-03-11T22:09:39.173Z,78.28
2018-03-11T22:12:07.470Z,78.20
2018-03-11T22:14:35.763Z,78.43
2018-03-11T22:17:04.875Z,78.36
2018-03-11T22:19:33.234Z,78.62
2018-03-11T22:22:01.498Z,78.88
2018-03-11T22:24:29.797Z,79.02
2018-03-11T22:26:58.090Z,78.95
2018-03-11T22:29:26.422Z,79.14
2018-03-11T22:31:54.722Z,79.11
2018-03-11T22:34:23.185Z,79.06
2018-03-11T22:36:51.491Z,79.09
2018-03-11T22:39:19.811Z,79.33
2018-03-11T22:41:48.085Z,79.62
2018-03-11T22:44:16.392Z,79.43
2018-03-11T22:46:44.711Z,79.83
2018-03-11T22:49:13.017Z,79.72
2018-03-11T22:51:41.369Z,79.16
2018-03-11T22:54:09.656Z,79.36
2018-03-11T22:56:37.951Z,79.33
2018-03-11T22:59:06.238Z,79.33
2018-03-11T23:01:34.560Z,79.67
2018-03-11T23:04:02.821Z,79.88
2018-03-11T23:06:31.124Z,79.98
2018-03-11T23:08:59.525Z,79.87
2018-03-11T23:11:27.844Z,79.70
2018-03-11T23:13:56.128Z,80.15
2018-03-11T23:16:24.421Z,79.94
2018-03-11T23:19:04.555Z,80.03
2018-03-11T23:21:32.872Z,80.14
2018-03-11T23:24:01.636Z,79.98
2018-03-11T23:26:29.968Z,80.04
2018-03-11T23:28:59.079Z,80.22
2018-03-11T23:31:27.385Z,80.22
2018-03-11T23:33:55.676Z,80.32
2018-03-11T23:36:24.898Z,80.31
2018-03-11T23:38:53.157Z,80.37
2018-03-11T23:41:21.456Z,80.27
2018-03-11T23:43:49.735Z,80.29
2018-03-11T23:46:18.045Z,80.44
2018-03-11T23:48:46.305Z,80.46
2018-03-11T23:51:14.682Z,80.66
2018-03-11T23:53:42.989Z,80.61
2018-03-11T23:56:11.400Z,80.55
2018-03-11T23:58:39.748Z,80.78
